createdAt,value
2023-03-27T04:03:00.546Z,5.60
2023-03-27T04:06:05.632Z,3.28
2023-03-27T04:09:08.222Z,4.05
2023-03-27T04:12:11.246Z,4.15
2023-03-27T04:15:15.660Z,5.90
2023-03-27T04:18:20.010Z,4.22
2023-03-27T04:21:26.664Z,4.62
2023-03-27T04:24:32.248Z,5.30
2023-03-27T04:27:35.666Z,4.85
2023-03-27T04:30:44.040Z,4.05
2023-03-27T04:33:51.846Z,3.75
2023-03-27T04:36:55.723Z,4.93
2023-03-27T04:40:00.308Z,6.37
2023-03-27T04:43:03.243Z,4.22
2023-03-27T04:46:08.145Z,4.30
2023-03-27T04:49:11.140Z,5.57
2023-03-27T04:52:14.088Z,3.97
2023-03-27T04:55:18.188Z,5.18
2023-03-27T04:58:23.989Z,4.45
2023-03-27T05:01:26.851Z,5.82
2023-03-27T05:04:31.966Z,4.87
2023-03-27T05:07:35.522Z,4.78
2023-03-27T05:10:38.389Z,6.15
2023-03-27T05:13:41.296Z,5.82
2023-03-27T05:16:44.023Z,4.85
2023-03-27T05:19:46.720Z,3.22
2023-03-27T05:22:52.086Z,4.20
2023-03-27T05:26:00.718Z,5.47
2023-03-27T05:29:08.773Z,4.62
2023-03-27T05:32:11.660Z,5.10
2023-03-27T05:35:16.415Z,3.85
2023-03-27T05:38:19.738Z,4.78
2023-03-27T05:41:22.019Z,5.22
2023-03-27T05:44:25.648Z,4.43
2023-03-27T05:47:28.020Z,5.03
2023-03-27T05:50:34.647Z,4.75
2023-03-27T05:53:40.767Z,5.87
2023-03-27T05:56:45.212Z,4.07
2023-03-27T05:59:48.885Z,4.95
2023-03-27T06:02:59.527Z,5.72
2023-03-27T06:06:12.228Z,5.85
2023-03-27T06:09:14.853Z,9.68
2023-03-27T06:12:18.887Z,6.20
2023-03-27T06:15:21.596Z,4.35
2023-03-27T06:18:25.007Z,4.32
2023-03-27T06:21:27.361Z,3.53
2023-03-27T06:24:31.817Z,3.10
2023-03-27T06:27:35.312Z,4.30
2023-03-27T06:30:38.903Z,2.35
2023-03-27T06:33:43.971Z,4.47
2023-03-27T06:36:50.146Z,1.95
2023-03-27T06:39:52.427Z,2.67
2023-03-27T06:43:02.189Z,2.95
2023-03-27T06:46:06.939Z,4.55
2023-03-27T06:49:11.952Z,2.50
2023-03-27T06:52:15.976Z,3.28
2023-03-27T06:55:20.208Z,1.85
2023-03-27T06:58:24.150Z,4.03
2023-03-27T07:01:27.179Z,3.28
2023-03-27T07:04:31.379Z,2.45
2023-03-27T07:07:34.586Z,4.10
2023-03-27T07:10:38.563Z,2.37
2023-03-27T07:13:41.572Z,1.62
2023-03-27T07:16:45.048Z,2.53
2023-03-27T07:19:48.693Z,3.33
2023-03-27T07:22:51.454Z,3.12
2023-03-27T07:26:00.302Z,2.62
2023-03-27T07:29:06.088Z,2.10
2023-03-27T07:32:09.623Z,3.00
2023-03-27T07:35:12.698Z,3.67
2023-03-27T07:38:18.590Z,2.70
2023-03-27T07:41:31.188Z,3.28
2023-03-27T07:44:36.035Z,3.53
2023-03-27T07:47:41.242Z,7.20
2023-03-27T07:50:44.968Z,2.80
2023-03-27T07:53:49.110Z,3.53
2023-03-27T07:56:51.846Z,3.42
2023-03-27T07:59:57.470Z,4.15
2023-03-27T08:03:08.709Z,2.60
2023-03-27T08:06:11.734Z,2.00
2023-03-27T08:09:14.327Z,3.58
2023-03-27T08:12:16.773Z,3.58
2023-03-27T08:15:20.598Z,3.80
2023-03-27T08:18:23.131Z,2.75
2023-03-27T08:21:26.239Z,3.42
2023-03-27T08:24:29.685Z,1.92
2023-03-27T08:27:33.715Z,2.75
2023-03-27T08:30:37.194Z,4.53
2023-03-27T08:33:41.479Z,1.70
2023-03-27T08:36:46.548Z,5.53
2023-03-27T08:39:48.936Z,2.67
2023-03-27T08:42:54.618Z,3.53
2023-03-27T08:46:03.767Z,5.00
2023-03-27T08:49:19.978Z,4.57
2023-03-27T08:52:30.600Z,6.37
2023-03-27T08:55:40.364Z,4.85
2023-03-27T08:58:44.539Z,3.92
2023-03-27T09:02:12.704Z,3.00
2023-03-27T09:05:26.327Z,2.75
2023-03-27T09:08:58.642Z,3.97
2023-03-27T09:12:16.979Z,3.60
2023-03-27T09:15:27.852Z,3.35
2023-03-27T09:19:15.427Z,5.07
2023-03-27T09:22:27.607Z,4.53
2023-03-27T09:25:46.492Z,6.00
2023-03-27T09:29:00.658Z,5.40
2023-03-27T09:32:04.085Z,5.60
2023-03-27T09:35:06.937Z,5.43
2023-03-27T09:38:37.163Z,4.57
2023-03-27T09:41:51.010Z,5.50
2023-03-27T09:44:58.242Z,3.55
2023-03-27T09:48:04.130Z,3.42
2023-03-27T09:51:47.236Z,3.70
2023-03-27T09:54:56.303Z,5.82
2023-03-27T09:58:25.206Z,4.25
2023-03-27T10:01:35.065Z,4.25
2023-03-27T10:04:37.699Z,3.60
2023-03-27T10:07:41.640Z,4.47
2023-03-27T10:10:45.882Z,2.75
2023-03-27T10:13:52.059Z,4.05
2023-03-27T10:16:54.922Z,7.80
2023-03-27T10:20:27.409Z,4.57
2023-03-27T10:23:40.994Z,4.35
2023-03-27T10:26:48.612Z,6.82
2023-03-27T10:29:53.972Z,5.68
2023-03-27T10:32:56.830Z,2.83
2023-03-27T10:36:00.574Z,2.22
2023-03-27T10:39:14.589Z,4.18
2023-03-27T10:42:18.242Z,2.35
2023-03-27T10:45:23.588Z,3.30
2023-03-27T10:48:53.144Z,1.85
2023-03-27T10:52:27.976Z,2.42
2023-03-27T10:55:48.403Z,2.20
2023-03-27T10:59:04.256Z,2.87
2023-03-27T11:02:15.974Z,3.10
2023-03-27T11:05:26.365Z,3.53
2023-03-27T11:08:31.952Z,2.87
2023-03-27T11:11:59.896Z,2.80
2023-03-27T11:15:17.241Z,5.00
2023-03-27T11:18:29.730Z,3.35
2023-03-27T11:21:38.676Z,2.12
2023-03-27T11:24:49.711Z,1.40
2023-03-27T11:28:14.053Z,2.45
2023-03-27T11:31:28.101Z,3.05
2023-03-27T11:34:46.284Z,2.67
2023-03-27T11:38:02.703Z,1.77
2023-03-27T11:41:08.108Z,2.33
2023-03-27T11:44:11.341Z,2.47
2023-03-27T11:47:19.632Z,2.58
2023-03-27T11:50:42.228Z,3.28
2023-03-27T11:53:54.339Z,5.15
2023-03-27T11:57:02.697Z,7.30
2023-03-27T12:00:20.277Z,3.87
2023-03-27T12:03:29.110Z,14.02
2023-03-27T12:06:53.296Z,19.15
2023-03-27T12:10:25.381Z,16.83
2023-03-27T12:14:01.794Z,19.02
2023-03-27T12:17:14.588Z,20.80
2023-03-27T12:20:52.861Z,18.85
2023-03-27T12:24:17.371Z,18.25
2023-03-27T12:27:30.587Z,18.62
2023-03-27T12:30:47.435Z,17.33
2023-03-27T12:34:10.297Z,16.50
2023-03-27T12:37:13.591Z,16.37
2023-03-27T12:40:37.396Z,15.02
2023-03-27T12:43:45.649Z,13.73
2023-03-27T12:47:13.459Z,12.45
2023-03-27T12:50:21.296Z,10.82
2023-03-27T12:53:30.955Z,11.30
2023-03-27T12:56:36.088Z,8.25
2023-03-27T12:59:49.293Z,7.22
2023-03-27T13:03:11.872Z,6.20
2023-03-27T13:06:22.647Z,5.78
2023-03-27T13:09:52.818Z,7.90
2023-03-27T13:13:26.145Z,5.43
2023-03-27T13:16:42.455Z,4.70
2023-03-27T13:19:56.394Z,3.62
2023-03-27T13:23:15.524Z,2.78
2023-03-27T13:26:33.162Z,2.85
2023-03-27T13:29:35.994Z,3.87
2023-03-27T13:32:41.041Z,2.67
2023-03-27T13:36:02.183Z,3.42
2023-03-27T13:39:15.791Z,4.75
2023-03-27T13:42:24.216Z,2.60
2023-03-27T13:45:41.968Z,2.58
2023-03-27T13:48:59.106Z,3.70
2023-03-27T13:52:19.962Z,3.05
2023-03-27T13:55:24.855Z,2.85
2023-03-27T13:58:52.081Z,3.10
2023-03-27T14:02:12.982Z,3.25
2023-03-27T14:05:56.491Z,4.55
2023-03-27T14:09:10.754Z,5.45
2023-03-27T14:12:55.373Z,4.37
2023-03-27T14:16:31.463Z,5.93
2023-03-27T14:20:08.198Z,5.50
2023-03-27T14:23:16.532Z,5.78
2023-03-27T14:26:24.630Z,6.55
2023-03-27T14:29:28.477Z,6.87
2023-03-27T14:32:31.061Z,5.68
2023-03-27T14:35:39.582Z,5.80
2023-03-27T14:38:42.830Z,6.80
2023-03-27T14:41:49.298Z,6.12
2023-03-27T14:44:53.708Z,4.65
2023-03-27T14:48:02.717Z,5.03
2023-03-27T14:51:24.882Z,4.62
2023-03-27T14:54:28.638Z,5.57
2023-03-27T14:57:32.554Z,3.53
2023-03-27T15:00:39.167Z,4.28
2023-03-27T15:03:44.525Z,4.90
2023-03-27T15:06:50.023Z,4.47
2023-03-27T15:10:20.758Z,5.35
2023-03-27T15:13:26.352Z,5.65
2023-03-27T15:16:32.313Z,6.03
2023-03-27T15:19:49.410Z,3.40
2023-03-27T15:23:01.249Z,4.18
2023-03-27T15:26:11.720Z,11.80
2023-03-27T15:29:29.389Z,4.93
2023-03-27T15:32:50.780Z,6.57
2023-03-27T15:35:56.653Z,4.50
2023-03-27T15:39:03.924Z,6.43
2023-03-27T15:42:13.706Z,4.78
2023-03-27T15:45:17.650Z,3.47
2023-03-27T15:48:30.869Z,3.50
2023-03-27T15:51:33.047Z,3.85
2023-03-27T15:54:36.201Z,4.45
2023-03-27T15:57:40.438Z,3.83
2023-03-27T16:00:48.936Z,3.67
2023-03-27T16:03:52.194Z,4.35
